• Join FlightAware (Why Join?)
  • Login
  • US Flag 
08:34AM EDT


 

Airport Tracker/Info


-or-


 

Live Flight TrackerFlight Track Log ✈ JZA8476 ✈ 01-Sep-2013 ✈ CYQU - CYYC

Flight Track Log - Related Links

Times and Time Zones

All times are in EDT time to prevent confusion due to time zone crossing. See the JZA8476 flight status page for this flight to view local times or setup timezone preferences in your user account.

Time Position Orientation Groundspeed Altitude Reporting Facility
EDT Latitude Longitude Course Direction KTS MPH feet Rate Location/Type
11:03AM 55.1333 -118.9167 142° Southeast 120 138 2,700  Level Edmonton Center
11:04AM 55.1167 -118.8667 120° Southeast 130 150 3,900 960 Climbing Edmonton Center
11:05AM 55.0833 -118.8333 150° Southeast 160 184 4,700 900 Climbing Edmonton Center
11:06AM 55.0333 -118.7833 150° Southeast 180 207 5,800 1,080 Climbing Edmonton Center
11:07AM 55.0000 -118.7333 139° Southeast 180 207 6,900 1,080 Climbing Edmonton Center
11:08AM 54.8514 -118.4464 142° Southeast  Level Estimated
11:08AM 54.9667 -118.6667 131° Southeast 190 219 8,000  Level Edmonton Center
11:09AM 54.9167 -118.6167 150° Southeast 190 219 9,100 960 Climbing Edmonton Center
11:10AM 54.8667 -118.5667 150° Southeast 190 219 10,000 900 Climbing Edmonton Center
11:11AM 54.8333 -118.5000 131° Southeast 200 230 11,000 960 Climbing Edmonton Center
11:12AM 54.7833 -118.4500 150° Southeast 200 230 12,000 900 Climbing Edmonton Center
11:13AM 54.7333 -118.4000 150° Southeast 200 230 12,900 780 Climbing Edmonton Center
11:14AM 54.6833 -118.3333 142° Southeast 200 230 13,600 780 Climbing Edmonton Center
11:15AM 54.6333 -118.2833 150° Southeast 210 242 14,500 780 Climbing Edmonton Center
11:16AM 54.5833 -118.2000 136° Southeast 220 253 15,200 720 Climbing Edmonton Center
11:17AM 54.5333 -118.1667 159° South 220 253 16,000 660 Climbing Edmonton Center
11:18AM 54.5000 -118.0833 125° Southeast 220 253 16,600 600 Climbing Edmonton Center
11:19AM 54.4333 -118.0333 156° South 220 253 17,300 660 Climbing Edmonton Center
11:20AM 54.3833 -117.9667 142° Southeast 220 253 18,000 600 Climbing Edmonton Center
11:21AM 54.3333 -117.9167 150° Southeast 220 253 18,500 480 Climbing Edmonton Center
11:22AM 54.2833 -117.8333 136° Southeast 230 265 19,000 480 Climbing Edmonton Center
11:23AM 54.2333 -117.7667 142° Southeast 230 265 19,500 540 Climbing Edmonton Center
11:24AM 54.1833 -117.7167 150° Southeast 230 265 20,100 540 Climbing Edmonton Center
11:25AM 54.1333 -117.6500 142° Southeast 230 265 20,600 600 Climbing Edmonton Center
11:26AM 54.0667 -117.6000 156° South 230 265 21,300 600 Climbing Edmonton Center
11:27AM 54.0333 -117.5167 124° Southeast 220 253 21,800 480 Climbing Edmonton Center
11:28AM 53.9667 -117.4667 156° South 220 253 22,300 420 Climbing Edmonton Center
11:29AM 53.9167 -117.4000 142° Southeast 220 253 22,700 300 Climbing Edmonton Center
11:30AM 53.8667 -117.3500 149° Southeast 220 253 23,000 120 Climbing Edmonton Center
11:31AM 53.8167 -117.2833 142° Southeast 230 265 23,000  Level Edmonton Center
11:32AM 53.7500 -117.2000 144° Southeast 250 288 23,000  Level Edmonton Center
11:33AM 53.7000 -117.1667 158° South 250 288 23,000  Level Edmonton Center
11:34AM 53.6500 -117.0833 135° Southeast 260 299 23,000  Level Edmonton Center
11:35AM 53.5833 -117.0167 149° Southeast 260 299 23,000  Level Edmonton Center
11:36AM 53.5167 -116.9333 143° Southeast 260 299 23,000  Level Edmonton Center
11:37AM 53.4667 -116.8500 135° Southeast 260 299 23,000  Level Edmonton Center
11:38AM 53.4000 -116.7833 149° Southeast 260 299 23,000  Level Edmonton Center
11:39AM 53.3333 -116.7333 156° South 270 311 23,000  Level Edmonton Center
11:40AM 53.2833 -116.6667 141° Southeast 270 311 23,000  Level Edmonton Center
11:41AM 53.2167 -116.5833 143° Southeast 270 311 23,000  Level Edmonton Center
11:42AM 53.1500 -116.5167 149° Southeast 270 311 23,000  Level Edmonton Center
11:43AM 53.0833 -116.4333 143° Southeast 270 311 23,000  Level Edmonton Center
11:44AM 53.0167 -116.3667 149° Southeast 270 311 23,000  Level Edmonton Center
11:45AM 52.9667 -116.3167 149° Southeast 260 299 23,000  Level Edmonton Center
11:46AM 52.9000 -116.2333 143° Southeast 270 311 23,000  Level Edmonton Center
11:47AM 52.8500 -116.1667 141° Southeast 260 299 23,000  Level Edmonton Center
11:48AM 52.7667 -116.1000 154° Southeast 270 311 23,000  Level Edmonton Center
11:49AM 52.7333 -116.0167 123° Southeast 270 311 23,000  Level Edmonton Center
11:50AM 52.6500 -115.9500 154° Southeast 260 299 23,000  Level Edmonton Center
11:51AM 52.5833 -115.8833 149° Southeast 270 311 23,000  Level Edmonton Center
11:52AM 52.5333 -115.8000 135° Southeast 270 311 23,000  Level Edmonton Center
11:53AM 52.4667 -115.7667 163° South 270 311 23,000  Level Edmonton Center
11:54AM 52.4000 -115.6833 143° Southeast 260 299 23,000  Level Edmonton Center
11:55AM 52.3333 -115.6167 149° Southeast 270 311 23,000  Level Edmonton Center
11:56AM 52.2833 -115.5500 141° Southeast 260 299 23,000  Level Edmonton Center
11:57AM 52.2167 -115.4667 143° Southeast 260 299 23,000  Level Edmonton Center
11:58AM 52.1500 -115.4000 148° Southeast 260 299 23,000  Level Edmonton Center
11:59AM 52.1000 -115.3500 148° Southeast 260 299 23,000 -660 Level Edmonton Center
12:00PM 52.0333 -115.2833 148° Southeast 280 322 21,700 -1,320 Descending Edmonton Center
12:01PM 51.9500 -115.1833 143° Southeast 300 345 20,400 -1,320 Descending Edmonton Center
12:02PM 51.9000 -115.1167 141° Southeast 300 345 19,100 -1,380 Descending Edmonton Center
12:03PM 51.8167 -115.0500 154° Southeast 300 345 17,700 -1,320 Descending Edmonton Center
12:04PM 51.7500 -114.9667 142° Southeast 300 345 16,500 -1,380 Descending Edmonton Center
12:05PM 51.6667 -114.9000 154° Southeast 300 345 15,000 -1,380 Descending Edmonton Center
12:06PM 51.6167 -114.8333 140° Southeast 300 345 13,800 -1,320 Descending Edmonton Center
12:07PM 51.5500 -114.7333 137° Southeast 300 345 12,400 -1,440 Descending Edmonton Center
12:08PM 51.5000 -114.6333 129° Southeast 300 345 11,000 -1,140 Descending Edmonton Center
12:09PM 51.4333 -114.5500 142° Southeast 290 334 10,200 -540 Descending Edmonton Center
12:10PM 51.3833 -114.4500 129° Southeast 280 322 10,000 -120 Descending Edmonton Center
12:11PM 51.3333 -114.3500 129° Southeast 270 311 10,000  Level Edmonton Center
12:12PM 51.2833 -114.2667 134° Southeast 270 311 10,000  Level Edmonton Center
12:13PM 51.2167 -114.2000 148° Southeast 260 299 10,000  Level Edmonton Center
12:14PM 51.1500 -114.2167 189° South 260 299 10,000 -60 Level Edmonton Center
12:15PM 51.0833 -114.2000 171° South 250 288 9,900 -1,080 Descending Edmonton Center
12:16PM 51.0167 -114.1833 171° South 220 253 7,900 -1,920 Descending Edmonton Center
12:17PM 50.9500 -114.1667 171° South 220 253 6,100 -1,080 Descending Edmonton Center
12:18PM 50.9667 -114.1167 62° Northeast 180 207 5,800 -540 Descending Edmonton Center
12:20PM 51.0167 -114.0500 40° Northeast 120 138 4,600 -660 Descending Edmonton Center
12:21PM 51.0500 -114.0500 360° North 130 150 3,900 -540 Descending Edmonton Center
12:22PM 51.0833 -114.0333 17° North 120 138 3,600 -300 Descending Edmonton Center